sensor_id;sensor_type;location;lat;lon;timestamp;pressure;altitude;pressure_sealevel;temperature;humidity
58471;BME280;44258;51.288;12.068;2023-04-24T00:00:36;99204.66;;;13.73;63.07
58471;BME280;44258;51.288;12.068;2023-04-24T00:03:06;99203.81;;;13.72;62.85
58471;BME280;44258;51.288;12.068;2023-04-24T00:05:33;99208.31;;;13.62;63.11
58471;BME280;44258;51.288;12.068;2023-04-24T00:07:59;99204.88;;;13.60;63.21
58471;BME280;44258;51.288;12.068;2023-04-24T00:10:27;99198.88;;;13.57;63.05
58471;BME280;44258;51.288;12.068;2023-04-24T00:12:54;99198.16;;;13.54;63.22
58471;BME280;44258;51.288;12.068;2023-04-24T00:15:20;99189.81;;;13.37;63.83
58471;BME280;44258;51.288;12.068;2023-04-24T00:17:47;99201.84;;;13.32;64.20
58471;BME280;44258;51.288;12.068;2023-04-24T00:20:14;99200.28;;;13.30;64.22
58471;BME280;44258;51.288;12.068;2023-04-24T00:22:41;99200.28;;;13.19;64.42
58471;BME280;44258;51.288;12.068;2023-04-24T00:25:08;99200.28;;;13.19;64.41
58471;BME280;44258;51.288;12.068;2023-04-24T00:27:36;99186.19;;;13.15;64.36
58471;BME280;44258;51.288;12.068;2023-04-24T00:30:05;99191.03;;;13.11;64.45
58471;BME280;44258;51.288;12.068;2023-04-24T00:32:32;99191.88;;;13.12;64.40
58471;BME280;44258;51.288;12.068;2023-04-24T00:34:59;99190.88;;;13.13;64.13
58471;BME280;44258;51.288;12.068;2023-04-24T00:37:25;99194.81;;;13.09;64.45
58471;BME280;44258;51.288;12.068;2023-04-24T00:39:52;99186.72;;;13.09;64.17
58471;BME280;44258;51.288;12.068;2023-04-24T00:42:19;99195.09;;;13.06;64.33
58471;BME280;44258;51.288;12.068;2023-04-24T00:44:48;99196.22;;;13.03;64.47
58471;BME280;44258;51.288;12.068;2023-04-24T00:47:15;99197.66;;;13.07;63.98
58471;BME280;44258;51.288;12.068;2023-04-24T00:49:42;99199.16;;;13.00;64.27
58471;BME280;44258;51.288;12.068;2023-04-24T00:52:08;99196.22;;;13.03;64.19
58471;BME280;44258;51.288;12.068;2023-04-24T00:54:36;99201.97;;;12.99;64.07
58471;BME280;44258;51.288;12.068;2023-04-24T00:57:02;99202.03;;;12.87;64.44
58471;BME280;44258;51.288;12.068;2023-04-24T00:59:30;99197.28;;;12.80;64.65
58471;BME280;44258;51.288;12.068;2023-04-24T01:01:59;99209.09;;;12.67;65.24
58471;BME280;44258;51.288;12.068;2023-04-24T01:04:26;99212.31;;;12.61;65.52
58471;BME280;44258;51.288;12.068;2023-04-24T01:06:54;99209.72;;;12.60;65.34
58471;BME280;44258;51.288;12.068;2023-04-24T01:09:23;99206.19;;;12.59;65.48
58471;BME280;44258;51.288;12.068;2023-04-24T01:11:49;99193.94;;;12.55;65.54
58471;BME280;44258;51.288;12.068;2023-04-24T01:14:16;99197.13;;;12.60;65.41
58471;BME280;44258;51.288;12.068;2023-04-24T01:16:43;99202.03;;;12.55;65.55
58471;BME280;44258;51.288;12.068;2023-04-24T01:19:11;99202.41;;;12.50;65.71
58471;BME280;44258;51.288;12.068;2023-04-24T01:21:38;99199.56;;;12.52;65.51
58471;BME280;44258;51.288;12.068;2023-04-24T01:24:06;99200.06;;;12.57;65.27
58471;BME280;44258;51.288;12.068;2023-04-24T01:26:34;99193.13;;;12.75;64.59
58471;BME280;44258;51.288;12.068;2023-04-24T01:29:00;99191.25;;;12.87;64.04
58471;BME280;44258;51.288;12.068;2023-04-24T01:31:28;99194.88;;;12.98;63.67
58471;BME280;44258;51.288;12.068;2023-04-24T01:33:55;99205.16;;;13.04;63.32
58471;BME280;44258;51.288;12.068;2023-04-24T01:36:24;99198.53;;;13.08;63.21
58471;BME280;44258;51.288;12.068;2023-04-24T01:38:52;99199.88;;;13.02;63.33
58471;BME280;44258;51.288;12.068;2023-04-24T01:41:20;99196.66;;;12.87;63.74
58471;BME280;44258;51.288;12.068;2023-04-24T01:43:49;99190.25;;;12.88;63.70
58471;BME280;44258;51.288;12.068;2023-04-24T01:46:16;99193.56;;;12.92;63.72
58471;BME280;44258;51.288;12.068;2023-04-24T01:48:44;99200.41;;;12.96;63.54
58471;BME280;44258;51.288;12.068;2023-04-24T01:51:11;99195.13;;;12.94;63.08
58471;BME280;44258;51.288;12.068;2023-04-24T01:53:37;99191.13;;;12.89;63.32
58471;BME280;44258;51.288;12.068;2023-04-24T01:56:05;99199.47;;;12.86;63.69
58471;BME280;44258;51.288;12.068;2023-04-24T01:58:33;99191.03;;;12.79;63.68
58471;BME280;44258;51.288;12.068;2023-04-24T02:00:59;99193.34;;;12.84;63.41
58471;BME280;44258;51.288;12.068;2023-04-24T02:03:26;99199.34;;;12.87;63.77
58471;BME280;44258;51.288;12.068;2023-04-24T02:05:53;99199.81;;;12.92;63.26
58471;BME280;44258;51.288;12.068;2023-04-24T02:08:19;99201.78;;;12.90;63.11
58471;BME280;44258;51.288;12.068;2023-04-24T02:10:46;99202.66;;;12.91;63.33
58471;BME280;44258;51.288;12.068;2023-04-24T02:13:14;99196.16;;;12.82;63.38
58471;BME280;44258;51.288;12.068;2023-04-24T02:15:42;99203.47;;;12.70;63.77
58471;BME280;44258;51.288;12.068;2023-04-24T02:18:08;99199.25;;;12.78;63.40
58471;BME280;44258;51.288;12.068;2023-04-24T02:20:36;99194.59;;;12.80;63.39
58471;BME280;44258;51.288;12.068;2023-04-24T02:23:03;99192.94;;;12.88;62.97
58471;BME280;44258;51.288;12.068;2023-04-24T02:25:29;99196.13;;;12.93;63.03
58471;BME280;44258;51.288;12.068;2023-04-24T02:27:56;99191.19;;;12.99;62.63
58471;BME280;44258;51.288;12.068;2023-04-24T02:30:23;99194.25;;;13.05;62.36
58471;BME280;44258;51.288;12.068;2023-04-24T02:32:51;99192.84;;;13.11;62.00
58471;BME280;44258;51.288;12.068;2023-04-24T02:35:18;99196.66;;;13.08;61.57
58471;BME280;44258;51.288;12.068;2023-04-24T02:37:45;99196.22;;;13.03;61.54
58471;BME280;44258;51.288;12.068;2023-04-24T02:40:12;99185.22;;;12.95;61.90
58471;BME280;44258;51.288;12.068;2023-04-24T02:42:38;99186.50;;;12.80;62.00
58471;BME280;44258;51.288;12.068;2023-04-24T02:45:06;99183.19;;;12.76;62.01
58471;BME280;44258;51.288;12.068;2023-04-24T02:47:34;99169.78;;;12.53;62.87
58471;BME280;44258;51.288;12.068;2023-04-24T02:50:03;99175.91;;;12.55;62.59
58471;BME280;44258;51.288;12.068;2023-04-24T02:52:30;99183.16;;;12.44;62.73
58471;BME280;44258;51.288;12.068;2023-04-24T02:54:56;99183.91;;;12.46;62.54
58471;BME280;44258;51.288;12.068;2023-04-24T02:57:23;99181.84;;;12.38;63.08
58471;BME280;44258;51.288;12.068;2023-04-24T02:59:49;99196.19;;;12.39;62.71
58471;BME280;44258;51.288;12.068;2023-04-24T03:02:16;99179.16;;;12.27;62.88
58471;BME280;44258;51.288;12.068;2023-04-24T03:04:43;99178.94;;;12.30;62.80
58471;BME280;44258;51.288;12.068;2023-04-24T03:07:11;99191.41;;;12.31;62.78
58471;BME280;44258;51.288;12.068;2023-04-24T03:09:38;99198.50;;;12.43;62.54
58471;BME280;44258;51.288;12.068;2023-04-24T03:12:05;99191.75;;;12.49;62.13
58471;BME280;44258;51.288;12.068;2023-04-24T03:14:31;99191.75;;;12.49;62.12
58471;BME280;44258;51.288;12.068;2023-04-24T03:17:01;99191.72;;;12.60;61.60
58471;BME280;44258;51.288;12.068;2023-04-24T03:19:28;99192.19;;;12.65;61.44
58471;BME280;44258;51.288;12.068;2023-04-24T03:21:54;99197.78;;;12.73;61.42
58471;BME280;44258;51.288;12.068;2023-04-24T03:24:22;99189.72;;;12.73;61.18
58471;BME280;44258;51.288;12.068;2023-04-24T03:26:52;99190.31;;;12.77;61.09
58471;BME280;44258;51.288;12.068;2023-04-24T03:29:18;99188.06;;;12.82;60.62
58471;BME280;44258;51.288;12.068;2023-04-24T03:31:45;99193.94;;;12.87;60.44
58471;BME280;44258;51.288;12.068;2023-04-24T03:34:11;99191.50;;;12.84;60.27
58471;BME280;44258;51.288;12.068;2023-04-24T03:36:38;99189.19;;;12.80;60.20
58471;BME280;44258;51.288;12.068;2023-04-24T03:39:04;99181.50;;;12.75;60.38
58471;BME280;44258;51.288;12.068;2023-04-24T03:41:36;99188.38;;;12.68;60.34
58471;BME280;44258;51.288;12.068;2023-04-24T03:44:03;99174.88;;;12.68;60.24
58471;BME280;44258;51.288;12.068;2023-04-24T03:46:30;99171.47;;;12.66;60.55
58471;BME280;44258;51.288;12.068;2023-04-24T03:48:56;99173.94;;;12.58;60.55
58471;BME280;44258;51.288;12.068;2023-04-24T03:51:23;99170.63;;;12.54;60.39
58471;BME280;44258;51.288;12.068;2023-04-24T03:53:49;99171.16;;;12.48;60.73
58471;BME280;44258;51.288;12.068;2023-04-24T03:56:16;99176.69;;;12.35;60.98
58471;BME280;44258;51.288;12.068;2023-04-24T03:58:46;99174.78;;;12.26;61.48
58471;BME280;44258;51.288;12.068;2023-04-24T04:01:13;99175.16;;;12.10;61.97
58471;BME280;44258;51.288;12.068;2023-04-24T04:03:41;99165.69;;;12.04;62.25
58471;BME280;44258;51.288;12.068;2023-04-24T04:06:07;99169.88;;;11.97;62.75
58471;BME280;44258;51.288;12.068;2023-04-24T04:08:36;99168.88;;;11.98;62.83
58471;BME280;44258;51.288;12.068;2023-04-24T04:11:02;99164.72;;;11.83;63.42
58471;BME280;44258;51.288;12.068;2023-04-24T04:13:29;99162.41;;;11.89;63.33
58471;BME280;44258;51.288;12.068;2023-04-24T04:15:57;99161.19;;;11.82;63.30
58471;BME280;44258;51.288;12.068;2023-04-24T04:18:24;99160.06;;;11.85;63.44
58471;BME280;44258;51.288;12.068;2023-04-24T04:20:50;99159.72;;;11.78;63.81
58471;BME280;44258;51.288;12.068;2023-04-24T04:23:17;99167.06;;;11.87;63.38
58471;BME280;44258;51.288;12.068;2023-04-24T04:25:43;99163.13;;;11.80;63.88
58471;BME280;44258;51.288;12.068;2023-04-24T04:28:10;99171.56;;;11.87;63.64
58471;BME280;44258;51.288;12.068;2023-04-24T04:30:36;99172.94;;;11.92;63.45
58471;BME280;44258;51.288;12.068;2023-04-24T04:33:06;99163.16;;;11.91;63.45
58471;BME280;44258;51.288;12.068;2023-04-24T04:35:33;99167.19;;;11.97;63.25
58471;BME280;44258;51.288;12.068;2023-04-24T04:38:00;99175.50;;;11.94;63.43
58471;BME280;44258;51.288;12.068;2023-04-24T04:40:27;99171.81;;;11.72;64.11
58471;BME280;44258;51.288;12.068;2023-04-24T04:42:53;99174.28;;;11.64;64.67
58471;BME280;44258;51.288;12.068;2023-04-24T04:45:20;99172.56;;;11.74;64.24
58471;BME280;44258;51.288;12.068;2023-04-24T04:47:47;99168.28;;;11.83;63.99
58471;BME280;44258;51.288;12.068;2023-04-24T04:50:17;99172.44;;;11.99;63.61
58471;BME280;44258;51.288;12.068;2023-04-24T04:52:44;99173.94;;;12.14;63.31
58471;BME280;44258;51.288;12.068;2023-04-24T04:55:11;99183.09;;;12.23;63.02
58471;BME280;44258;51.288;12.068;2023-04-24T04:57:40;99181.00;;;12.26;63.07
58471;BME280;44258;51.288;12.068;2023-04-24T05:00:08;99186.13;;;12.29;62.91
58471;BME280;44258;51.288;12.068;2023-04-24T05:02:35;99192.19;;;12.22;63.00
58471;BME280;44258;51.288;12.068;2023-04-24T05:05:02;99188.59;;;12.32;63.05
58471;BME280;44258;51.288;12.068;2023-04-24T05:07:30;99186.25;;;12.39;62.79
58471;BME280;44258;51.288;12.068;2023-04-24T05:09:57;99189.78;;;12.40;62.85
58471;BME280;44258;51.288;12.068;2023-04-24T05:12:23;99186.97;;;12.52;62.53
58471;BME280;44258;51.288;12.068;2023-04-24T05:14:50;99176.41;;;12.49;62.56
58471;BME280;44258;51.288;12.068;2023-04-24T05:17:17;99192.94;;;12.56;62.43
58471;BME280;44258;51.288;12.068;2023-04-24T05:19:45;99189.75;;;12.62;61.87
58471;BME280;44258;51.288;12.068;2023-04-24T05:22:12;99190.94;;;12.69;61.85
58471;BME280;44258;51.288;12.068;2023-04-24T05:24:39;99187.50;;;12.79;61.45
58471;BME280;44258;51.288;12.068;2023-04-24T05:27:06;99188.69;;;12.86;61.14
58471;BME280;44258;51.288;12.068;2023-04-24T05:29:33;99195.19;;;12.83;61.27
58471;BME280;44258;51.288;12.068;2023-04-24T05:32:00;99192.50;;;12.83;61.13
58471;BME280;44258;51.288;12.068;2023-04-24T05:34:27;99197.59;;;12.65;61.75
58471;BME280;44258;51.288;12.068;2023-04-24T05:36:53;99186.59;;;12.46;62.15
58471;BME280;44258;51.288;12.068;2023-04-24T05:39:20;99202.25;;;12.52;62.07
58471;BME280;44258;51.288;12.068;2023-04-24T05:41:48;99197.03;;;12.50;61.92
58471;BME280;44258;51.288;12.068;2023-04-24T05:44:14;99207.44;;;12.44;62.37
58471;BME280;44258;51.288;12.068;2023-04-24T05:46:41;99211.56;;;12.59;62.00
58471;BME280;44258;51.288;12.068;2023-04-24T05:49:07;99214.50;;;12.56;62.03
58471;BME280;44258;51.288;12.068;2023-04-24T05:51:34;99211.81;;;12.56;62.17
58471;BME280;44258;51.288;12.068;2023-04-24T05:54:01;99215.00;;;12.61;61.78
58471;BME280;44258;51.288;12.068;2023-04-24T05:56:28;99213.03;;;12.74;61.55
58471;BME280;44258;51.288;12.068;2023-04-24T05:58:57;99211.38;;;12.83;61.33
58471;BME280;44258;51.288;12.068;2023-04-24T06:01:24;99208.16;;;12.89;61.19
58471;BME280;44258;51.288;12.068;2023-04-24T06:03:50;99207.66;;;12.95;61.06
58471;BME280;44258;51.288;12.068;2023-04-24T06:06:18;99203.13;;;13.17;61.04
58471;BME280;44258;51.288;12.068;2023-04-24T06:08:44;99205.31;;;13.65;59.85
58471;BME280;44258;51.288;12.068;2023-04-24T06:11:11;99204.19;;;13.68;59.24
58471;BME280;44258;51.288;12.068;2023-04-24T06:13:38;99198.59;;;13.81;58.93
58471;BME280;44258;51.288;12.068;2023-04-24T06:16:06;99197.00;;;13.78;58.62
58471;BME280;44258;51.288;12.068;2023-04-24T06:18:32;99195.34;;;13.87;58.49
58471;BME280;44258;51.288;12.068;2023-04-24T06:20:59;99205.56;;;13.83;58.28
58471;BME280;44258;51.288;12.068;2023-04-24T06:23:26;99196.31;;;13.86;57.97
58471;BME280;44258;51.288;12.068;2023-04-24T06:25:52;99202.19;;;13.91;57.55
58471;BME280;44258;51.288;12.068;2023-04-24T06:28:19;99204.78;;;13.71;57.81
58471;BME280;44258;51.288;12.068;2023-04-24T06:30:46;99210.25;;;13.81;57.72
58471;BME280;44258;51.288;12.068;2023-04-24T06:33:14;99200.41;;;13.80;57.25
58471;BME280;44258;51.288;12.068;2023-04-24T06:35:40;99202.41;;;13.78;57.18
58471;BME280;44258;51.288;12.068;2023-04-24T06:38:07;99198.91;;;13.87;57.34
58471;BME280;44258;51.288;12.068;2023-04-24T06:40:34;99199.91;;;13.96;57.11
58471;BME280;44258;51.288;12.068;2023-04-24T06:43:00;99200.59;;;14.19;56.79
58471;BME280;44258;51.288;12.068;2023-04-24T06:45:28;99199.25;;;14.34;56.39
58471;BME280;44258;51.288;12.068;2023-04-24T06:47:55;99195.00;;;14.42;56.11
58471;BME280;44258;51.288;12.068;2023-04-24T06:50:24;99206.97;;;14.49;56.45
58471;BME280;44258;51.288;12.068;2023-04-24T06:52:51;99207.97;;;14.48;55.98
58471;BME280;44258;51.288;12.068;2023-04-24T06:55:17;99204.31;;;14.28;56.14
58471;BME280;44258;51.288;12.068;2023-04-24T06:57:44;99200.28;;;14.12;56.56
58471;BME280;44258;51.288;12.068;2023-04-24T07:00:12;99203.38;;;14.08;56.80
58471;BME280;44258;51.288;12.068;2023-04-24T07:02:39;99203.53;;;14.06;56.46
58471;BME280;44258;51.288;12.068;2023-04-24T07:05:06;99205.78;;;14.01;56.59
58471;BME280;44258;51.288;12.068;2023-04-24T07:07:39;99203.69;;;14.05;56.77
58471;BME280;44258;51.288;12.068;2023-04-24T07:10:06;99202.31;;;13.89;56.82
58471;BME280;44258;51.288;12.068;2023-04-24T07:12:34;99212.72;;;13.94;56.84
58471;BME280;44258;51.288;12.068;2023-04-24T07:15:01;99213.31;;;13.98;56.74
58471;BME280;44258;51.288;12.068;2023-04-24T07:17:28;99209.34;;;14.02;56.16
58471;BME280;44258;51.288;12.068;2023-04-24T07:19:55;99207.31;;;13.94;56.38
58471;BME280;44258;51.288;12.068;2023-04-24T07:22:23;99212.84;;;14.23;55.93
58471;BME280;44258;51.288;12.068;2023-04-24T07:24:51;99213.53;;;14.56;54.32
58471;BME280;44258;51.288;12.068;2023-04-24T07:27:17;99205.31;;;14.77;53.90
58471;BME280;44258;51.288;12.068;2023-04-24T07:29:44;99198.03;;;14.68;52.57
58471;BME280;44258;51.288;12.068;2023-04-24T07:32:11;99197.91;;;14.89;52.85
58471;BME280;44258;51.288;12.068;2023-04-24T07:34:37;99194.91;;;15.02;52.58
58471;BME280;44258;51.288;12.068;2023-04-24T07:37:08;99193.19;;;15.49;52.03
58471;BME280;44258;51.288;12.068;2023-04-24T07:39:34;99196.44;;;15.53;50.35
58471;BME280;44258;51.288;12.068;2023-04-24T07:42:02;99197.69;;;15.78;50.34
58471;BME280;44258;51.288;12.068;2023-04-24T07:44:29;99192.88;;;16.00;50.42
58471;BME280;44258;51.288;12.068;2023-04-24T07:46:57;99201.88;;;16.28;49.16
58471;BME280;44258;51.288;12.068;2023-04-24T07:49:25;99203.66;;;16.19;48.84
58471;BME280;44258;51.288;12.068;2023-04-24T07:51:53;99199.28;;;16.08;49.17
58471;BME280;44258;51.288;12.068;2023-04-24T07:54:20;99207.91;;;16.22;49.70
58471;BME280;44258;51.288;12.068;2023-04-24T07:56:46;99202.34;;;16.23;48.36
58471;BME280;44258;51.288;12.068;2023-04-24T07:59:14;99216.19;;;16.58;47.78
58471;BME280;44258;51.288;12.068;2023-04-24T08:01:41;99216.63;;;16.25;47.23
58471;BME280;44258;51.288;12.068;2023-04-24T08:04:11;99214.28;;;16.40;47.70
58471;BME280;44258;51.288;12.068;2023-04-24T08:06:38;99209.97;;;16.47;46.47
58471;BME280;44258;51.288;12.068;2023-04-24T08:09:05;99218.53;;;16.70;46.07
58471;BME280;44258;51.288;12.068;2023-04-24T08:11:31;99224.34;;;16.93;46.70
58471;BME280;44258;51.288;12.068;2023-04-24T08:13:58;99227.16;;;17.02;45.19
58471;BME280;44258;51.288;12.068;2023-04-24T08:16:27;99227.69;;;16.87;45.15
58471;BME280;44258;51.288;12.068;2023-04-24T08:18:53;99234.38;;;16.93;45.13
58471;BME280;44258;51.288;12.068;2023-04-24T08:21:20;99222.47;;;16.58;45.25
58471;BME280;44258;51.288;12.068;2023-04-24T08:23:47;99229.56;;;16.41;45.49
58471;BME280;44258;51.288;12.068;2023-04-24T08:26:14;99244.63;;;16.53;45.66
58471;BME280;44258;51.288;12.068;2023-04-24T08:28:40;99239.50;;;16.96;46.13
58471;BME280;44258;51.288;12.068;2023-04-24T08:31:07;99231.81;;;17.09;45.20
58471;BME280;44258;51.288;12.068;2023-04-24T08:33:37;99232.13;;;17.42;45.40
58471;BME280;44258;51.288;12.068;2023-04-24T08:36:05;99227.88;;;17.22;45.94
58471;BME280;44258;51.288;12.068;2023-04-24T08:38:32;99234.91;;;16.79;45.25
58471;BME280;44258;51.288;12.068;2023-04-24T08:41:00;99237.25;;;16.46;45.54
58471;BME280;44258;51.288;12.068;2023-04-24T08:43:27;99238.13;;;16.37;45.77
58471;BME280;44258;51.288;12.068;2023-04-24T08:45:55;99248.50;;;15.66;46.73
58471;BME280;44258;51.288;12.068;2023-04-24T08:48:23;99250.16;;;15.77;46.36
58471;BME280;44258;51.288;12.068;2023-04-24T08:50:54;99251.59;;;15.71;47.21
58471;BME280;44258;51.288;12.068;2023-04-24T08:53:20;99248.03;;;15.81;46.35
58471;BME280;44258;51.288;12.068;2023-04-24T08:55:48;99250.03;;;15.69;46.74
58471;BME280;44258;51.288;12.068;2023-04-24T08:58:15;99252.28;;;15.83;47.42
58471;BME280;44258;51.288;12.068;2023-04-24T09:00:46;99252.94;;;16.05;47.08
58471;BME280;44258;51.288;12.068;2023-04-24T09:03:13;99262.31;;;16.20;46.52
58471;BME280;44258;51.288;12.068;2023-04-24T09:05:41;99262.88;;;16.33;46.02
58471;BME280;44258;51.288;12.068;2023-04-24T09:08:13;99262.13;;;16.41;46.19
58471;BME280;44258;51.288;12.068;2023-04-24T09:10:41;99261.16;;;16.60;46.95
58471;BME280;44258;51.288;12.068;2023-04-24T09:13:07;99257.88;;;16.84;46.57
58471;BME280;44258;51.288;12.068;2023-04-24T09:15:35;99275.81;;;16.95;45.65
58471;BME280;44258;51.288;12.068;2023-04-24T09:18:04;99269.00;;;16.26;44.72
58471;BME280;44258;51.288;12.068;2023-04-24T09:20:30;99266.75;;;16.31;44.54
58471;BME280;44258;51.288;12.068;2023-04-24T09:22:57;99273.00;;;16.22;44.70
58471;BME280;44258;51.288;12.068;2023-04-24T09:25:31;99262.03;;;16.23;44.66
58471;BME280;44258;51.288;12.068;2023-04-24T09:28:00;99274.88;;;16.31;44.93
58471;BME280;44258;51.288;12.068;2023-04-24T09:30:29;99268.09;;;16.45;45.12
58471;BME280;44258;51.288;12.068;2023-04-24T09:33:10;99256.06;;;16.57;44.63
58471;BME280;44258;51.288;12.068;2023-04-24T09:35:40;99260.78;;;16.73;44.25
58471;BME280;44258;51.288;12.068;2023-04-24T09:38:08;99273.47;;;16.82;44.31
58471;BME280;44258;51.288;12.068;2023-04-24T09:40:36;99265.88;;;16.58;42.87
58471;BME280;44258;51.288;12.068;2023-04-24T09:43:10;99268.16;;;16.35;42.55
58471;BME280;44258;51.288;12.068;2023-04-24T09:45:38;99261.63;;;16.56;42.98
58471;BME280;44258;51.288;12.068;2023-04-24T09:48:05;99268.50;;;16.78;41.10
58471;BME280;44258;51.288;12.068;2023-04-24T09:50:33;99256.25;;;17.09;38.54
58471;BME280;44258;51.288;12.068;2023-04-24T09:53:03;99282.28;;;17.30;39.03
58471;BME280;44258;51.288;12.068;2023-04-24T09:55:30;99275.03;;;17.03;38.66
58471;BME280;44258;51.288;12.068;2023-04-24T09:57:59;99283.28;;;17.11;38.28
58471;BME280;44258;51.288;12.068;2023-04-24T10:00:28;99285.19;;;17.28;38.92
58471;BME280;44258;51.288;12.068;2023-04-24T10:02:56;99290.38;;;17.22;39.48
58471;BME280;44258;51.288;12.068;2023-04-24T10:05:30;99294.66;;;17.24;38.84
58471;BME280;44258;51.288;12.068;2023-04-24T10:08:00;99289.06;;;17.26;39.93
58471;BME280;44258;51.288;12.068;2023-04-24T10:10:28;99298.66;;;17.20;38.35
58471;BME280;44258;51.288;12.068;2023-04-24T10:12:54;99289.09;;;17.16;38.19
58471;BME280;44258;51.288;12.068;2023-04-24T10:15:22;99300.47;;;17.02;37.99
58471;BME280;44258;51.288;12.068;2023-04-24T10:17:51;99298.00;;;16.63;37.96
58471;BME280;44258;51.288;12.068;2023-04-24T10:20:23;99299.25;;;16.96;38.15
58471;BME280;44258;51.288;12.068;2023-04-24T10:22:51;99299.63;;;17.01;37.70
58471;BME280;44258;51.288;12.068;2023-04-24T10:25:19;99310.00;;;16.60;38.06
58471;BME280;44258;51.288;12.068;2023-04-24T10:27:47;99304.19;;;16.83;38.02
58471;BME280;44258;51.288;12.068;2023-04-24T10:30:18;99304.34;;;17.27;37.50
58471;BME280;44258;51.288;12.068;2023-04-24T10:32:47;99304.09;;;17.38;37.38
58471;BME280;44258;51.288;12.068;2023-04-24T10:35:14;99309.25;;;17.41;36.99
58471;BME280;44258;51.288;12.068;2023-04-24T10:37:45;99310.09;;;17.60;37.31
58471;BME280;44258;51.288;12.068;2023-04-24T10:40:17;99310.78;;;17.44;37.39
58471;BME280;44258;51.288;12.068;2023-04-24T10:42:47;99306.19;;;17.62;35.72
58471;BME280;44258;51.288;12.068;2023-04-24T10:45:19;99301.88;;;17.51;35.45
58471;BME280;44258;51.288;12.068;2023-04-24T10:47:56;99307.22;;;17.25;35.69
58471;BME280;44258;51.288;12.068;2023-04-24T10:50:25;99303.19;;;17.29;35.08
58471;BME280;44258;51.288;12.068;2023-04-24T10:53:05;99300.09;;;17.24;36.12
58471;BME280;44258;51.288;12.068;2023-04-24T10:55:43;99310.19;;;17.04;37.33
58471;BME280;44258;51.288;12.068;2023-04-24T10:58:10;99322.91;;;17.04;36.14
58471;BME280;44258;51.288;12.068;2023-04-24T11:00:38;99330.16;;;17.41;35.01
58471;BME280;44258;51.288;12.068;2023-04-24T11:03:22;99320.66;;;16.99;35.67
58471;BME280;44258;51.288;12.068;2023-04-24T11:05:51;99325.09;;;17.00;35.57
58471;BME280;44258;51.288;12.068;2023-04-24T11:08:37;99324.78;;;17.31;36.01
58471;BME280;44258;51.288;12.068;2023-04-24T11:11:10;99313.22;;;17.47;34.58
58471;BME280;44258;51.288;12.068;2023-04-24T11:14:08;99328.19;;;17.05;34.96
58471;BME280;44258;51.288;12.068;2023-04-24T11:16:39;99320.03;;;17.05;34.64
58471;BME280;44258;51.288;12.068;2023-04-24T11:19:11;99320.25;;;17.22;34.97
58471;BME280;44258;51.288;12.068;2023-04-24T11:21:47;99312.13;;;17.12;33.85
58471;BME280;44258;51.288;12.068;2023-04-24T11:24:32;99312.59;;;17.53;34.14
58471;BME280;44258;51.288;12.068;2023-04-24T11:27:09;99315.66;;;17.76;33.26
58471;BME280;44258;51.288;12.068;2023-04-24T11:29:43;99306.13;;;17.54;33.56
58471;BME280;44258;51.288;12.068;2023-04-24T11:32:15;99313.63;;;17.78;32.37
58471;BME280;44258;51.288;12.068;2023-04-24T11:34:47;99322.91;;;17.67;33.64
58471;BME280;44258;51.288;12.068;2023-04-24T11:37:15;99323.31;;;17.37;34.90
58471;BME280;44258;51.288;12.068;2023-04-24T11:39:41;99326.94;;;17.63;35.16
58471;BME280;44258;51.288;12.068;2023-04-24T11:42:08;99332.75;;;17.68;33.73
58471;BME280;44258;51.288;12.068;2023-04-24T11:44:35;99338.44;;;17.39;35.59
58471;BME280;44258;51.288;12.068;2023-04-24T11:47:02;99338.78;;;17.08;35.70
58471;BME280;44258;51.288;12.068;2023-04-24T11:49:29;99342.94;;;17.30;34.37
58471;BME280;44258;51.288;12.068;2023-04-24T11:51:59;99341.25;;;17.65;34.20
58471;BME280;44258;51.288;12.068;2023-04-24T11:54:26;99344.41;;;17.79;34.36
58471;BME280;44258;51.288;12.068;2023-04-24T11:56:53;99345.56;;;18.12;34.03
58471;BME280;44258;51.288;12.068;2023-04-24T11:59:21;99341.41;;;18.08;32.89
58471;BME280;44258;51.288;12.068;2023-04-24T12:01:48;99334.81;;;17.92;33.07
58471;BME280;44258;51.288;12.068;2023-04-24T12:04:16;99332.31;;;17.09;33.11
58471;BME280;44258;51.288;12.068;2023-04-24T12:07:00;99342.00;;;17.12;32.42
58471;BME280;44258;51.288;12.068;2023-04-24T12:09:27;99344.16;;;16.90;32.60
58471;BME280;44258;51.288;12.068;2023-04-24T12:11:55;99329.56;;;16.91;33.12
58471;BME280;44258;51.288;12.068;2023-04-24T12:14:22;99338.16;;;16.87;33.75
58471;BME280;44258;51.288;12.068;2023-04-24T12:16:48;99333.28;;;16.90;34.22
58471;BME280;44258;51.288;12.068;2023-04-24T12:19:18;99349.34;;;16.84;33.99
58471;BME280;44258;51.288;12.068;2023-04-24T12:22:01;99336.84;;;17.19;32.69
58471;BME280;44258;51.288;12.068;2023-04-24T12:24:28;99340.69;;;17.16;33.60
58471;BME280;44258;51.288;12.068;2023-04-24T12:26:55;99336.72;;;17.38;33.58
58471;BME280;44258;51.288;12.068;2023-04-24T12:29:22;99338.28;;;17.59;33.17
58471;BME280;44258;51.288;12.068;2023-04-24T12:31:50;99345.41;;;17.42;32.94
58471;BME280;44258;51.288;12.068;2023-04-24T12:34:18;99334.31;;;17.35;32.64
58471;BME280;44258;51.288;12.068;2023-04-24T12:36:46;99337.34;;;17.68;33.55
58471;BME280;44258;51.288;12.068;2023-04-24T12:39:17;99341.47;;;17.54;32.65
58471;BME280;44258;51.288;12.068;2023-04-24T12:41:54;99326.53;;;17.76;32.55
58471;BME280;44258;51.288;12.068;2023-04-24T12:44:29;99326.06;;;17.81;31.72
58471;BME280;44258;51.288;12.068;2023-04-24T12:46:55;99328.94;;;17.79;32.27
58471;BME280;44258;51.288;12.068;2023-04-24T12:49:22;99327.38;;;17.94;33.11
58471;BME280;44258;51.288;12.068;2023-04-24T12:51:49;99327.13;;;18.06;31.31
58471;BME280;44258;51.288;12.068;2023-04-24T12:54:17;99336.91;;;17.99;32.91